Terminal Aerodrome Forecast
Issued by NWS

Home | Current Version | Previous Version | Graphics & Text | Print | Product List | Glossary On
Versions: 1 2 3 4 5 6 7 8 9 10 11 12
868
FTUS45 KGGW 251123
TAFSDY
TAF
KSDY 251123Z 2512/2612 21008KT P6SM SCT250
     FM251900 24013KT P6SM SCT230
     FM252100 27014KT P6SM SCT210
     FM252300 31015KT P6SM SCT200
     FM260100 34016G24KT P6SM BKN070
     FM260700 30007KT P6SM SCT100=

USA.gov is the U.S. government's official web portal to all federal, state and local government web resources and services.